Buckingham, VA (23921)

11:18 PM EST del 28 Gennaio 2015 (GMT -0500)
APRSWXNET Dillwyn VA US | Change Station
CLOSE
Current Station
Stazione meteo personale
Location: Dillwyn, VA
Altitudine: 987 ft
Stazioni meteo nelle vicinanze

Alt. 987 ft 37.47 °N, 78.46 °W | Updated 44 minutes ago

Sereno
Sereno
33 °F
Sembra 28 °F
N
5
Vento Variabile Vento da NE
Gusts 8.0 mph

Oggi
Massima -- | Minima -- °F
--% Possibilità di precip.
Ieri
Massima -- | Minima -- °F
Precip. -- in
7:21 AM 5:33 PM
Gobba a ponente, 70% visible
Pressione 30.32 in
Visibilità 10.0 miglia
Nuvole Sereno
Raffreddamento del vento 28 °F
Punto di rugiada 9 °F
Umidità 36%
Piovosità -999.00 in
Spessore del manto nevoso Non disponibile.
Raggi UV 0 fuori da 12
Polline .40 fuori da 12
Qualità dell'aria Non disponibile.
Flu Activity Non disponibile.
METAR KFVX 290355Z AUTO 00000KT 10SM CLR M06/M13 A3032 RMK AO2 T10641132

More Conditions Fewer Conditions

Pressione 30.32 in
Visibilità 10.0 miglia
Nuvole Sereno
Raffreddamento del vento 28 °F
Punto di rugiada 9 °F
Umidità 36%
Piovosità -999.00 in
Spessore del manto nevoso Non disponibile.
Raggi UV 0 fuori da 12
Polline .40 fuori da 12
Qualità dell'aria Non disponibile.
Flu Activity Non disponibile.
METAR KFVX 290355Z AUTO 00000KT 10SM CLR M06/M13 A3032 RMK AO2 T10641132

More Conditions Fewer Conditions

10-Day Weather Forecast

Almanac

Astronomia

Jan. 28, 2015 Alba Tramonto
Ora attuale
Crepuscolo civile
Crepuscolo nautico
Crepuscolo astronomico
Luna
Estensione della luce visibile
Lunghezza del giorno
Tomorrow will be .
, % of the Moon is Illuminated

Gli estremi di oggi

State Highs State Lows

Community

WunderPhotos

Upload Photos

1,791,344 foto caricate!

WunderBlogs® & News

Nearby

Qualità dell'aria

  Qualità dell'aria Indice AQ Inquinante
Not available.

Profondità neve

Stazione Profondità Altitudine

Attività sismica

Città  Distanza Mag. Data & Ora
Minimo Magnitudo Mostrato è 2.5.

Temperature delle acque costiere

Località Temperatura

Stazioni meteo nelle vicinanze